createdAt,value
2023-04-26T04:55:14.373Z,77.30
2023-04-26T05:00:18.813Z,77.10
2023-04-26T05:05:22.154Z,75.70
2023-04-26T05:10:27.184Z,74.80
2023-04-26T05:15:31.050Z,72.20
2023-04-26T05:20:34.706Z,71.50
2023-04-26T05:25:40.393Z,71.70
2023-04-26T05:30:44.527Z,71.70
2023-04-26T05:35:47.987Z,71.10
2023-04-26T05:40:52.757Z,70.40
2023-04-26T05:45:58.172Z,70.20
2023-04-26T05:51:01.698Z,70.10
2023-04-26T05:56:07.440Z,70.40
2023-04-26T06:01:12.391Z,70.70
2023-04-26T06:06:16.469Z,70.60
2023-04-26T06:11:21.520Z,69.80
2023-04-26T06:16:25.283Z,69.80
2023-04-26T06:21:28.807Z,68.60
2023-04-26T06:26:33.646Z,68.70
2023-04-26T06:31:37.299Z,69.10
2023-04-26T06:36:41.371Z,68.90
2023-04-26T06:41:46.631Z,67.90
2023-04-26T06:46:50.602Z,66.40
2023-04-26T06:51:54.412Z,66.50
2023-04-26T06:57:01.225Z,65.00
2023-04-26T07:02:05.392Z,64.60
2023-04-26T07:07:10.463Z,64.60
2023-04-26T07:12:16.560Z,64.80
2023-04-26T07:17:21.380Z,64.20
2023-04-26T07:22:25.350Z,63.30
2023-04-26T07:27:32.044Z,61.50
2023-04-26T07:32:36.506Z,61.80
2023-04-26T07:37:40.404Z,60.10
2023-04-26T07:42:45.342Z,57.50
2023-04-26T07:47:48.888Z,58.60
2023-04-26T07:52:52.642Z,57.80
2023-04-26T07:57:57.710Z,57.20
2023-04-26T08:03:03.592Z,56.00
2023-04-26T08:08:07.383Z,54.40
2023-04-26T08:13:12.178Z,54.10
2023-04-26T08:18:15.612Z,54.50
2023-04-26T08:23:19.657Z,55.90
2023-04-26T08:28:24.438Z,53.60
2023-04-26T08:33:27.897Z,52.40
2023-04-26T08:38:32.360Z,54.10
2023-04-26T08:43:38.753Z,52.60
2023-04-26T08:48:42.215Z,53.50
2023-04-26T08:53:46.534Z,52.70
2023-04-26T08:58:52.053Z,54.40
2023-04-26T09:03:57.252Z,55.00
2023-04-26T09:09:04.945Z,53.20
2023-04-26T09:14:09.795Z,51.40
2023-04-26T09:19:13.248Z,51.30
2023-04-26T09:24:17.156Z,52.30
2023-04-26T09:29:22.083Z,53.20
2023-04-26T09:34:25.521Z,51.70
2023-04-26T09:39:33.896Z,50.60
2023-04-26T09:44:39.258Z,54.00
2023-04-26T09:49:48.819Z,53.90
2023-04-26T09:54:54.584Z,52.30
2023-04-26T10:00:00.927Z,52.70
2023-04-26T10:05:07.245Z,50.60
2023-04-26T10:10:12.877Z,50.90
2023-04-26T10:15:19.249Z,52.70
2023-04-26T10:20:24.352Z,52.70
2023-04-26T10:25:36.627Z,48.60
2023-04-26T10:30:56.644Z,48.90
2023-04-26T10:36:09.957Z,48.90
2023-04-26T10:41:33.207Z,47.90
2023-04-26T10:46:40.594Z,46.10
2023-04-26T10:52:12.626Z,48.50
2023-04-26T10:57:16.982Z,52.70
2023-04-26T11:02:58.248Z,51.30
2023-04-26T11:08:09.452Z,50.00
2023-04-26T11:13:13.530Z,46.50
2023-04-26T11:18:21.077Z,44.90
2023-04-26T11:23:25.520Z,43.30
2023-04-26T11:28:29.053Z,46.20
2023-04-26T11:33:34.254Z,44.80
2023-04-26T11:38:39.439Z,45.60
2023-04-26T11:43:43.135Z,44.40
2023-04-26T11:48:48.557Z,44.80
2023-04-26T11:53:52.800Z,45.10
2023-04-26T11:58:58.430Z,43.80
2023-04-26T12:04:03.402Z,44.40
2023-04-26T12:09:08.261Z,43.70
2023-04-26T12:14:11.958Z,43.00
2023-04-26T12:19:17.279Z,43.50
2023-04-26T12:24:24.838Z,45.10
2023-04-26T12:29:30.606Z,46.90
2023-04-26T12:34:35.827Z,41.80
2023-04-26T12:39:39.230Z,45.10
2023-04-26T12:44:42.695Z,45.00
2023-04-26T12:49:48.122Z,43.30
2023-04-26T12:54:51.906Z,42.50
2023-04-26T12:59:57.185Z,42.40
2023-04-26T13:05:04.780Z,41.90
2023-04-26T13:10:12.842Z,42.20
2023-04-26T13:15:17.798Z,40.40
2023-04-26T13:20:25.489Z,38.70
2023-04-26T13:25:29.691Z,38.50
2023-04-26T13:30:33.163Z,40.30
2023-04-26T13:35:38.197Z,43.70
2023-04-26T13:40:41.857Z,46.20
2023-04-26T13:45:45.247Z,46.70
2023-04-26T13:50:50.016Z,46.20
2023-04-26T13:55:53.515Z,44.20
2023-04-26T14:00:58.544Z,44.50
2023-04-26T14:06:03.937Z,43.70
2023-04-26T14:11:07.966Z,42.60
2023-04-26T14:16:11.727Z,40.80
2023-04-26T14:21:16.870Z,41.00
2023-04-26T14:26:20.491Z,42.00
2023-04-26T14:31:26.084Z,40.10
2023-04-26T14:36:32.137Z,37.80
2023-04-26T14:41:35.506Z,32.00
2023-04-26T14:46:42.455Z,30.50
2023-04-26T14:51:48.027Z,35.20
2023-04-26T14:56:51.943Z,38.80
2023-04-26T15:01:55.710Z,41.90
2023-04-26T15:07:00.888Z,39.20
2023-04-26T15:12:04.999Z,33.40
2023-04-26T15:17:08.672Z,30.00
2023-04-26T15:22:13.507Z,34.80
2023-04-26T15:27:17.544Z,39.20
2023-04-26T15:32:20.979Z,41.10
2023-04-26T15:37:25.754Z,42.50
2023-04-26T15:42:29.180Z,40.80
2023-04-26T15:47:32.685Z,37.00
2023-04-26T15:52:39.419Z,32.70
2023-04-26T15:57:43.539Z,28.50
2023-04-26T16:02:47.333Z,27.30
2023-04-26T16:07:52.286Z,29.00
2023-04-26T16:12:55.694Z,31.10
2023-04-26T16:17:59.179Z,34.60
2023-04-26T16:23:04.053Z,37.50
2023-04-26T16:28:10.023Z,40.70
2023-04-26T16:33:14.390Z,43.50
2023-04-26T16:38:19.566Z,44.40
2023-04-26T16:43:23.011Z,42.00
2023-04-26T16:48:26.545Z,39.20
2023-04-26T16:53:31.868Z,38.20
2023-04-26T16:58:35.536Z,35.60
2023-04-26T17:03:39.455Z,35.90
2023-04-26T17:08:44.931Z,38.20
2023-04-26T17:13:48.647Z,40.20
2023-04-26T17:18:52.580Z,41.50
2023-04-26T17:23:57.594Z,42.70
2023-04-26T17:29:01.081Z,43.90
2023-04-26T17:34:05.133Z,45.60
2023-04-26T17:39:10.346Z,49.10
2023-04-26T17:44:13.869Z,53.60
2023-04-26T17:49:17.580Z,55.90
2023-04-26T17:54:22.658Z,55.20
2023-04-26T17:59:26.054Z,54.40
2023-04-26T18:04:30.677Z,53.30
2023-04-26T18:09:35.628Z,53.00
2023-04-26T18:14:44.697Z,52.40
2023-04-26T18:19:48.429Z,52.90
2023-04-26T18:24:53.269Z,53.30
2023-04-26T18:29:56.668Z,53.70
2023-04-26T18:35:00.757Z,54.40
2023-04-26T18:40:06.391Z,54.20
2023-04-26T18:45:10.935Z,54.10
2023-04-26T18:50:14.803Z,54.30
2023-04-26T18:55:19.892Z,54.40
2023-04-26T19:00:23.766Z,53.70
2023-04-26T19:05:27.459Z,55.80
2023-04-26T19:10:32.948Z,57.20
2023-04-26T19:15:36.594Z,57.90
2023-04-26T19:20:40.741Z,58.50
2023-04-26T19:25:46.060Z,59.70
2023-04-26T19:30:49.518Z,60.00
2023-04-26T19:35:53.148Z,60.00
2023-04-26T19:40:58.191Z,60.00
2023-04-26T19:46:01.675Z,60.00
2023-04-26T19:51:05.377Z,60.70
2023-04-26T19:56:12.046Z,61.60
2023-04-26T20:01:15.978Z,61.30
2023-04-26T20:06:19.831Z,60.80
2023-04-26T20:11:24.683Z,60.00
2023-04-26T20:16:28.669Z,59.00
2023-04-26T20:21:32.583Z,59.30
2023-04-26T20:26:37.403Z,59.00
2023-04-26T20:31:41.159Z,58.00
2023-04-26T20:36:44.898Z,58.30
2023-04-26T20:41:49.705Z,58.20
2023-04-26T20:46:53.209Z,57.50
2023-04-26T20:51:56.951Z,56.90
2023-04-26T20:57:04.168Z,57.30
2023-04-26T21:02:08.914Z,57.10
2023-04-26T21:07:13.049Z,57.40
2023-04-26T21:12:18.109Z,58.00
2023-04-26T21:17:21.880Z,58.60
2023-04-26T21:22:25.618Z,59.70
2023-04-26T21:27:31.701Z,60.90
2023-04-26T21:32:35.150Z,60.90
2023-04-26T21:37:38.693Z,61.30
2023-04-26T21:42:46.661Z,61.00
2023-04-26T21:47:55.252Z,60.20
2023-04-26T21:52:58.675Z,61.20
2023-04-26T21:58:03.422Z,61.10
2023-04-26T22:03:07.094Z,62.60
2023-04-26T22:08:10.738Z,61.70
2023-04-26T22:13:15.634Z,62.20
2023-04-26T22:18:19.337Z,62.70
2023-04-26T22:23:22.761Z,62.70
2023-04-26T22:28:28.069Z,62.20
